sensor_id;sensor_type;location;lat;lon;timestamp;P1;durP1;ratioP1;P2;durP2;ratioP2
23155;SDS011;11746;50.876;4.246;2023-07-02T00:00:30;26.17;;;13.63;;
23155;SDS011;11746;50.876;4.246;2023-07-02T00:02:56;25.52;;;14.00;;
23155;SDS011;11746;50.876;4.246;2023-07-02T00:05:22;27.08;;;14.18;;
23155;SDS011;11746;50.876;4.246;2023-07-02T00:07:48;24.73;;;13.50;;
23155;SDS011;11746;50.876;4.246;2023-07-02T00:10:14;26.45;;;14.43;;
23155;SDS011;11746;50.876;4.246;2023-07-02T00:12:39;26.00;;;14.25;;
23155;SDS011;11746;50.876;4.246;2023-07-02T00:15:05;28.85;;;13.70;;
23155;SDS011;11746;50.876;4.246;2023-07-02T00:17:31;26.70;;;13.93;;
23155;SDS011;11746;50.876;4.246;2023-07-02T00:19:57;27.60;;;15.23;;
23155;SDS011;11746;50.876;4.246;2023-07-02T00:22:33;30.55;;;14.45;;
23155;SDS011;11746;50.876;4.246;2023-07-02T00:25:01;33.00;;;14.98;;
23155;SDS011;11746;50.876;4.246;2023-07-02T00:27:27;28.02;;;14.73;;
23155;SDS011;11746;50.876;4.246;2023-07-02T00:29:53;34.03;;;16.02;;
23155;SDS011;11746;50.876;4.246;2023-07-02T00:32:19;30.85;;;15.07;;
23155;SDS011;11746;50.876;4.246;2023-07-02T00:34:45;30.63;;;14.43;;
23155;SDS011;11746;50.876;4.246;2023-07-02T00:37:11;30.70;;;15.40;;
23155;SDS011;11746;50.876;4.246;2023-07-02T00:39:36;32.00;;;15.77;;
23155;SDS011;11746;50.876;4.246;2023-07-02T00:42:02;31.85;;;15.55;;
23155;SDS011;11746;50.876;4.246;2023-07-02T00:44:29;29.38;;;15.80;;
23155;SDS011;11746;50.876;4.246;2023-07-02T00:46:55;30.88;;;15.45;;
23155;SDS011;11746;50.876;4.246;2023-07-02T00:49:21;32.72;;;16.58;;
23155;SDS011;11746;50.876;4.246;2023-07-02T00:51:47;29.27;;;16.25;;
23155;SDS011;11746;50.876;4.246;2023-07-02T00:54:13;31.33;;;15.20;;
23155;SDS011;11746;50.876;4.246;2023-07-02T00:56:39;33.28;;;16.42;;
23155;SDS011;11746;50.876;4.246;2023-07-02T00:59:05;30.50;;;15.60;;
23155;SDS011;11746;50.876;4.246;2023-07-02T01:01:31;34.20;;;16.55;;
23155;SDS011;11746;50.876;4.246;2023-07-02T01:04:04;30.83;;;15.82;;
23155;SDS011;11746;50.876;4.246;2023-07-02T01:06:33;33.45;;;16.27;;
23155;SDS011;11746;50.876;4.246;2023-07-02T01:09:02;33.50;;;16.65;;
23155;SDS011;11746;50.876;4.246;2023-07-02T01:11:30;34.88;;;16.08;;
23155;SDS011;11746;50.876;4.246;2023-07-02T01:14:03;32.75;;;17.10;;
23155;SDS011;11746;50.876;4.246;2023-07-02T01:16:33;35.67;;;16.33;;
23155;SDS011;11746;50.876;4.246;2023-07-02T01:19:04;31.15;;;17.85;;
23155;SDS011;11746;50.876;4.246;2023-07-02T01:21:38;30.50;;;16.40;;
23155;SDS011;11746;50.876;4.246;2023-07-02T01:24:04;36.03;;;18.17;;
23155;SDS011;11746;50.876;4.246;2023-07-02T01:26:31;32.35;;;17.80;;
23155;SDS011;11746;50.876;4.246;2023-07-02T01:29:15;33.38;;;17.30;;
23155;SDS011;11746;50.876;4.246;2023-07-02T01:31:41;36.20;;;17.00;;
23155;SDS011;11746;50.876;4.246;2023-07-02T01:34:07;34.20;;;16.52;;
23155;SDS011;11746;50.876;4.246;2023-07-02T01:36:34;34.17;;;17.35;;
23155;SDS011;11746;50.876;4.246;2023-07-02T01:39:00;32.17;;;16.20;;
23155;SDS011;11746;50.876;4.246;2023-07-02T01:41:26;35.15;;;17.30;;
23155;SDS011;11746;50.876;4.246;2023-07-02T01:43:52;32.22;;;16.58;;
23155;SDS011;11746;50.876;4.246;2023-07-02T01:46:18;35.55;;;17.05;;
23155;SDS011;11746;50.876;4.246;2023-07-02T01:48:44;37.92;;;18.25;;
23155;SDS011;11746;50.876;4.246;2023-07-02T01:51:10;35.88;;;17.30;;
23155;SDS011;11746;50.876;4.246;2023-07-02T01:53:35;28.90;;;16.38;;
23155;SDS011;11746;50.876;4.246;2023-07-02T01:56:01;40.67;;;18.35;;
23155;SDS011;11746;50.876;4.246;2023-07-02T01:58:27;33.88;;;16.55;;
23155;SDS011;11746;50.876;4.246;2023-07-02T02:00:53;34.85;;;17.75;;
23155;SDS011;11746;50.876;4.246;2023-07-02T02:03:19;32.45;;;16.30;;
23155;SDS011;11746;50.876;4.246;2023-07-02T02:05:47;34.70;;;18.33;;
23155;SDS011;11746;50.876;4.246;2023-07-02T02:08:13;33.72;;;16.80;;
23155;SDS011;11746;50.876;4.246;2023-07-02T02:10:39;38.30;;;17.90;;
23155;SDS011;11746;50.876;4.246;2023-07-02T02:13:05;35.05;;;17.95;;
23155;SDS011;11746;50.876;4.246;2023-07-02T02:15:31;32.70;;;17.35;;
23155;SDS011;11746;50.876;4.246;2023-07-02T02:17:57;29.98;;;17.45;;
23155;SDS011;11746;50.876;4.246;2023-07-02T02:20:23;38.50;;;18.25;;
23155;SDS011;11746;50.876;4.246;2023-07-02T02:22:49;34.03;;;17.67;;
23155;SDS011;11746;50.876;4.246;2023-07-02T02:25:14;39.35;;;18.75;;
23155;SDS011;11746;50.876;4.246;2023-07-02T02:27:40;34.42;;;17.02;;
23155;SDS011;11746;50.876;4.246;2023-07-02T02:30:08;35.88;;;17.70;;
23155;SDS011;11746;50.876;4.246;2023-07-02T02:32:34;41.63;;;19.50;;
23155;SDS011;11746;50.876;4.246;2023-07-02T02:35:00;39.83;;;19.38;;
23155;SDS011;11746;50.876;4.246;2023-07-02T02:37:26;40.28;;;17.13;;
23155;SDS011;11746;50.876;4.246;2023-07-02T02:39:52;35.67;;;17.20;;
23155;SDS011;11746;50.876;4.246;2023-07-02T02:42:18;36.22;;;17.73;;
23155;SDS011;11746;50.876;4.246;2023-07-02T02:44:44;38.50;;;18.20;;
23155;SDS011;11746;50.876;4.246;2023-07-02T02:47:10;37.08;;;18.10;;
23155;SDS011;11746;50.876;4.246;2023-07-02T02:49:37;35.90;;;18.13;;
23155;SDS011;11746;50.876;4.246;2023-07-02T02:52:04;36.40;;;17.95;;
23155;SDS011;11746;50.876;4.246;2023-07-02T02:54:30;40.10;;;18.42;;
23155;SDS011;11746;50.876;4.246;2023-07-02T02:56:56;40.38;;;18.30;;
23155;SDS011;11746;50.876;4.246;2023-07-02T02:59:22;34.58;;;17.63;;
23155;SDS011;11746;50.876;4.246;2023-07-02T03:01:48;36.42;;;18.70;;
23155;SDS011;11746;50.876;4.246;2023-07-02T03:04:14;35.63;;;17.80;;
23155;SDS011;11746;50.876;4.246;2023-07-02T03:06:40;39.47;;;19.08;;
23155;SDS011;11746;50.876;4.246;2023-07-02T03:09:05;40.53;;;18.15;;
23155;SDS011;11746;50.876;4.246;2023-07-02T03:11:31;37.50;;;19.50;;
23155;SDS011;11746;50.876;4.246;2023-07-02T03:13:57;43.47;;;18.95;;
23155;SDS011;11746;50.876;4.246;2023-07-02T03:16:23;42.80;;;18.85;;
23155;SDS011;11746;50.876;4.246;2023-07-02T03:18:49;38.03;;;18.42;;
23155;SDS011;11746;50.876;4.246;2023-07-02T03:21:16;36.45;;;19.10;;
23155;SDS011;11746;50.876;4.246;2023-07-02T03:23:41;37.47;;;19.00;;
23155;SDS011;11746;50.876;4.246;2023-07-02T03:26:09;42.80;;;20.25;;
23155;SDS011;11746;50.876;4.246;2023-07-02T03:28:35;33.25;;;19.00;;
23155;SDS011;11746;50.876;4.246;2023-07-02T03:31:01;36.83;;;18.27;;
23155;SDS011;11746;50.876;4.246;2023-07-02T03:33:27;38.15;;;18.20;;
23155;SDS011;11746;50.876;4.246;2023-07-02T03:35:53;39.03;;;19.50;;
23155;SDS011;11746;50.876;4.246;2023-07-02T03:38:19;34.83;;;19.33;;
23155;SDS011;11746;50.876;4.246;2023-07-02T03:40:45;42.45;;;20.48;;
23155;SDS011;11746;50.876;4.246;2023-07-02T03:43:12;38.00;;;20.27;;
23155;SDS011;11746;50.876;4.246;2023-07-02T03:45:38;37.17;;;20.55;;
23155;SDS011;11746;50.876;4.246;2023-07-02T03:48:04;44.25;;;20.08;;
23155;SDS011;11746;50.876;4.246;2023-07-02T03:50:30;41.75;;;20.15;;
23155;SDS011;11746;50.876;4.246;2023-07-02T03:52:55;37.92;;;20.73;;
23155;SDS011;11746;50.876;4.246;2023-07-02T03:55:21;38.40;;;18.52;;
23155;SDS011;11746;50.876;4.246;2023-07-02T03:57:47;38.63;;;19.73;;
23155;SDS011;11746;50.876;4.246;2023-07-02T04:00:13;42.10;;;19.48;;
23155;SDS011;11746;50.876;4.246;2023-07-02T04:02:39;38.95;;;19.20;;
23155;SDS011;11746;50.876;4.246;2023-07-02T04:05:05;39.78;;;19.70;;
23155;SDS011;11746;50.876;4.246;2023-07-02T04:07:32;44.05;;;21.02;;
23155;SDS011;11746;50.876;4.246;2023-07-02T04:09:58;40.90;;;20.08;;
23155;SDS011;11746;50.876;4.246;2023-07-02T04:12:24;40.88;;;20.08;;
23155;SDS011;11746;50.876;4.246;2023-07-02T04:14:50;42.58;;;20.25;;
23155;SDS011;11746;50.876;4.246;2023-07-02T04:17:16;44.72;;;20.67;;
23155;SDS011;11746;50.876;4.246;2023-07-02T04:19:42;47.17;;;20.80;;
23155;SDS011;11746;50.876;4.246;2023-07-02T04:22:08;42.33;;;19.52;;
23155;SDS011;11746;50.876;4.246;2023-07-02T04:24:34;42.05;;;20.85;;
23155;SDS011;11746;50.876;4.246;2023-07-02T04:27:00;47.90;;;21.50;;
23155;SDS011;11746;50.876;4.246;2023-07-02T04:29:25;52.28;;;21.33;;
23155;SDS011;11746;50.876;4.246;2023-07-02T04:31:51;41.50;;;21.05;;
23155;SDS011;11746;50.876;4.246;2023-07-02T04:34:17;45.65;;;21.70;;
23155;SDS011;11746;50.876;4.246;2023-07-02T04:36:46;47.30;;;22.67;;
23155;SDS011;11746;50.876;4.246;2023-07-02T04:39:12;47.97;;;23.08;;
23155;SDS011;11746;50.876;4.246;2023-07-02T04:41:38;45.90;;;22.17;;
23155;SDS011;11746;50.876;4.246;2023-07-02T04:44:04;44.22;;;22.08;;
23155;SDS011;11746;50.876;4.246;2023-07-02T04:46:30;45.42;;;22.95;;
23155;SDS011;11746;50.876;4.246;2023-07-02T04:48:56;53.63;;;23.13;;
23155;SDS011;11746;50.876;4.246;2023-07-02T04:51:22;51.72;;;23.27;;
23155;SDS011;11746;50.876;4.246;2023-07-02T04:53:48;47.97;;;22.45;;
23155;SDS011;11746;50.876;4.246;2023-07-02T04:56:14;47.25;;;24.15;;
23155;SDS011;11746;50.876;4.246;2023-07-02T04:58:40;46.03;;;23.63;;
23155;SDS011;11746;50.876;4.246;2023-07-02T05:01:06;47.63;;;23.52;;
23155;SDS011;11746;50.876;4.246;2023-07-02T05:03:32;51.65;;;24.23;;
23155;SDS011;11746;50.876;4.246;2023-07-02T05:05:57;49.58;;;22.50;;
23155;SDS011;11746;50.876;4.246;2023-07-02T05:08:23;50.00;;;23.77;;
23155;SDS011;11746;50.876;4.246;2023-07-02T05:10:49;54.95;;;25.42;;
23155;SDS011;11746;50.876;4.246;2023-07-02T05:13:15;49.60;;;23.30;;
23155;SDS011;11746;50.876;4.246;2023-07-02T05:15:41;51.65;;;24.40;;
23155;SDS011;11746;50.876;4.246;2023-07-02T05:18:07;47.80;;;24.25;;
23155;SDS011;11746;50.876;4.246;2023-07-02T05:20:33;53.58;;;23.45;;
23155;SDS011;11746;50.876;4.246;2023-07-02T05:22:59;46.33;;;22.60;;
23155;SDS011;11746;50.876;4.246;2023-07-02T05:25:25;46.35;;;24.00;;
23155;SDS011;11746;50.876;4.246;2023-07-02T05:27:51;50.33;;;23.98;;
23155;SDS011;11746;50.876;4.246;2023-07-02T05:30:17;47.58;;;22.48;;
23155;SDS011;11746;50.876;4.246;2023-07-02T05:32:43;45.42;;;22.55;;
23155;SDS011;11746;50.876;4.246;2023-07-02T05:35:09;53.38;;;24.10;;
23155;SDS011;11746;50.876;4.246;2023-07-02T05:37:35;51.42;;;23.45;;
23155;SDS011;11746;50.876;4.246;2023-07-02T05:40:01;47.72;;;24.10;;
23155;SDS011;11746;50.876;4.246;2023-07-02T05:42:27;47.53;;;23.20;;
23155;SDS011;11746;50.876;4.246;2023-07-02T05:44:52;52.00;;;23.45;;
23155;SDS011;11746;50.876;4.246;2023-07-02T05:47:18;44.92;;;23.63;;
23155;SDS011;11746;50.876;4.246;2023-07-02T05:49:44;55.25;;;23.67;;
23155;SDS011;11746;50.876;4.246;2023-07-02T05:52:10;53.67;;;25.00;;
23155;SDS011;11746;50.876;4.246;2023-07-02T05:54:39;49.90;;;23.80;;
23155;SDS011;11746;50.876;4.246;2023-07-02T05:57:06;55.90;;;23.98;;
23155;SDS011;11746;50.876;4.246;2023-07-02T05:59:31;45.38;;;22.88;;
23155;SDS011;11746;50.876;4.246;2023-07-02T06:01:57;52.42;;;23.08;;
23155;SDS011;11746;50.876;4.246;2023-07-02T06:04:23;50.55;;;23.42;;
23155;SDS011;11746;50.876;4.246;2023-07-02T06:06:49;53.05;;;22.90;;
23155;SDS011;11746;50.876;4.246;2023-07-02T06:09:15;51.70;;;23.38;;
23155;SDS011;11746;50.876;4.246;2023-07-02T06:11:43;47.90;;;22.13;;
23155;SDS011;11746;50.876;4.246;2023-07-02T06:14:09;43.78;;;20.98;;
23155;SDS011;11746;50.876;4.246;2023-07-02T06:16:35;50.60;;;22.70;;
23155;SDS011;11746;50.876;4.246;2023-07-02T06:19:01;48.45;;;21.92;;
23155;SDS011;11746;50.876;4.246;2023-07-02T06:21:27;39.47;;;20.23;;
23155;SDS011;11746;50.876;4.246;2023-07-02T06:23:55;44.35;;;20.95;;
23155;SDS011;11746;50.876;4.246;2023-07-02T06:26:22;44.85;;;20.60;;
23155;SDS011;11746;50.876;4.246;2023-07-02T06:28:47;46.10;;;21.15;;
23155;SDS011;11746;50.876;4.246;2023-07-02T06:31:13;41.15;;;20.27;;
23155;SDS011;11746;50.876;4.246;2023-07-02T06:33:40;44.58;;;20.27;;
23155;SDS011;11746;50.876;4.246;2023-07-02T06:36:07;48.83;;;20.20;;
23155;SDS011;11746;50.876;4.246;2023-07-02T06:38:33;43.17;;;19.67;;
23155;SDS011;11746;50.876;4.246;2023-07-02T06:40:59;38.20;;;18.48;;
23155;SDS011;11746;50.876;4.246;2023-07-02T06:43:25;37.90;;;18.90;;
23155;SDS011;11746;50.876;4.246;2023-07-02T06:45:51;34.00;;;18.92;;
23155;SDS011;11746;50.876;4.246;2023-07-02T06:48:17;34.88;;;17.67;;
23155;SDS011;11746;50.876;4.246;2023-07-02T06:50:46;36.45;;;17.30;;
23155;SDS011;11746;50.876;4.246;2023-07-02T06:53:12;32.88;;;16.95;;
23155;SDS011;11746;50.876;4.246;2023-07-02T06:55:38;32.22;;;15.68;;
23155;SDS011;11746;50.876;4.246;2023-07-02T06:58:05;35.03;;;15.00;;
23155;SDS011;11746;50.876;4.246;2023-07-02T07:00:32;31.73;;;13.65;;
23155;SDS011;11746;50.876;4.246;2023-07-02T07:03:01;29.05;;;14.68;;
23155;SDS011;11746;50.876;4.246;2023-07-02T07:05:29;31.67;;;14.68;;
23155;SDS011;11746;50.876;4.246;2023-07-02T07:07:56;28.05;;;13.93;;
23155;SDS011;11746;50.876;4.246;2023-07-02T07:10:23;28.73;;;12.23;;
23155;SDS011;11746;50.876;4.246;2023-07-02T07:12:49;30.33;;;12.27;;
23155;SDS011;11746;50.876;4.246;2023-07-02T07:15:15;29.75;;;12.15;;
23155;SDS011;11746;50.876;4.246;2023-07-02T07:17:41;27.02;;;13.00;;
23155;SDS011;11746;50.876;4.246;2023-07-02T07:20:07;30.27;;;12.70;;
23155;SDS011;11746;50.876;4.246;2023-07-02T07:22:33;22.38;;;11.38;;
23155;SDS011;11746;50.876;4.246;2023-07-02T07:24:59;24.17;;;11.65;;
23155;SDS011;11746;50.876;4.246;2023-07-02T07:27:25;21.30;;;10.07;;
23155;SDS011;11746;50.876;4.246;2023-07-02T07:29:51;23.20;;;9.70;;
23155;SDS011;11746;50.876;4.246;2023-07-02T07:32:17;20.33;;;9.10;;
23155;SDS011;11746;50.876;4.246;2023-07-02T07:34:45;22.48;;;9.45;;
23155;SDS011;11746;50.876;4.246;2023-07-02T07:37:11;20.30;;;9.68;;
23155;SDS011;11746;50.876;4.246;2023-07-02T07:39:36;25.15;;;9.95;;
23155;SDS011;11746;50.876;4.246;2023-07-02T07:42:02;21.05;;;9.30;;
23155;SDS011;11746;50.876;4.246;2023-07-02T07:44:29;20.55;;;8.85;;
23155;SDS011;11746;50.876;4.246;2023-07-02T07:46:56;20.70;;;9.07;;
23155;SDS011;11746;50.876;4.246;2023-07-02T07:49:22;17.83;;;9.32;;
23155;SDS011;11746;50.876;4.246;2023-07-02T07:51:48;21.73;;;9.05;;
23155;SDS011;11746;50.876;4.246;2023-07-02T07:54:14;27.52;;;11.93;;
23155;SDS011;11746;50.876;4.246;2023-07-02T07:56:40;19.05;;;9.45;;
23155;SDS011;11746;50.876;4.246;2023-07-02T07:59:06;19.70;;;9.38;;
23155;SDS011;11746;50.876;4.246;2023-07-02T08:01:31;23.02;;;9.60;;
23155;SDS011;11746;50.876;4.246;2023-07-02T08:03:57;19.08;;;8.77;;
23155;SDS011;11746;50.876;4.246;2023-07-02T08:06:23;21.45;;;9.35;;
23155;SDS011;11746;50.876;4.246;2023-07-02T08:08:49;25.23;;;9.25;;
23155;SDS011;11746;50.876;4.246;2023-07-02T08:11:15;20.13;;;9.50;;
23155;SDS011;11746;50.876;4.246;2023-07-02T08:13:42;18.55;;;9.57;;
23155;SDS011;11746;50.876;4.246;2023-07-02T08:16:08;21.85;;;9.05;;
23155;SDS011;11746;50.876;4.246;2023-07-02T08:18:35;16.70;;;8.75;;
23155;SDS011;11746;50.876;4.246;2023-07-02T08:21:01;18.33;;;8.90;;
23155;SDS011;11746;50.876;4.246;2023-07-02T08:23:27;20.20;;;8.98;;
23155;SDS011;11746;50.876;4.246;2023-07-02T08:25:53;19.75;;;8.68;;
23155;SDS011;11746;50.876;4.246;2023-07-02T08:28:21;20.58;;;9.43;;
23155;SDS011;11746;50.876;4.246;2023-07-02T08:30:46;19.42;;;8.90;;
23155;SDS011;11746;50.876;4.246;2023-07-02T08:33:12;28.35;;;12.05;;
23155;SDS011;11746;50.876;4.246;2023-07-02T08:35:38;24.08;;;9.95;;
23155;SDS011;11746;50.876;4.246;2023-07-02T08:38:04;19.95;;;10.35;;
23155;SDS011;11746;50.876;4.246;2023-07-02T08:40:30;24.73;;;10.68;;
23155;SDS011;11746;50.876;4.246;2023-07-02T08:42:56;22.42;;;10.55;;
23155;SDS011;11746;50.876;4.246;2023-07-02T08:45:24;28.50;;;12.50;;
23155;SDS011;11746;50.876;4.246;2023-07-02T08:47:51;22.05;;;10.40;;
23155;SDS011;11746;50.876;4.246;2023-07-02T08:50:21;24.33;;;11.32;;
23155;SDS011;11746;50.876;4.246;2023-07-02T08:52:48;20.35;;;10.18;;
23155;SDS011;11746;50.876;4.246;2023-07-02T08:55:14;25.38;;;11.57;;
23155;SDS011;11746;50.876;4.246;2023-07-02T08:57:40;25.60;;;11.40;;
23155;SDS011;11746;50.876;4.246;2023-07-02T09:00:14;23.42;;;10.63;;
23155;SDS011;11746;50.876;4.246;2023-07-02T09:02:40;25.73;;;11.23;;
23155;SDS011;11746;50.876;4.246;2023-07-02T09:05:06;25.05;;;10.50;;
23155;SDS011;11746;50.876;4.246;2023-07-02T09:07:42;24.60;;;10.65;;
23155;SDS011;11746;50.876;4.246;2023-07-02T09:10:12;25.23;;;10.52;;
23155;SDS011;11746;50.876;4.246;2023-07-02T09:13:04;23.02;;;9.30;;
23155;SDS011;11746;50.876;4.246;2023-07-02T09:15:40;17.02;;;8.90;;
23155;SDS011;11746;50.876;4.246;2023-07-02T09:18:19;23.55;;;9.68;;
23155;SDS011;11746;50.876;4.246;2023-07-02T09:20:54;24.10;;;9.30;;
23155;SDS011;11746;50.876;4.246;2023-07-02T09:23:20;21.05;;;9.35;;
23155;SDS011;11746;50.876;4.246;2023-07-02T09:25:46;27.95;;;9.75;;
23155;SDS011;11746;50.876;4.246;2023-07-02T09:33:19;21.27;;;9.40;;
23155;SDS011;11746;50.876;4.246;2023-07-02T09:35:45;21.42;;;9.52;;
23155;SDS011;11746;50.876;4.246;2023-07-02T09:38:12;21.55;;;8.75;;
23155;SDS011;11746;50.876;4.246;2023-07-02T09:40:42;25.02;;;9.50;;
23155;SDS011;11746;50.876;4.246;2023-07-02T09:43:17;20.17;;;9.65;;
23155;SDS011;11746;50.876;4.246;2023-07-02T09:45:47;29.00;;;9.63;;
23155;SDS011;11746;50.876;4.246;2023-07-02T09:48:15;21.30;;;9.35;;
23155;SDS011;11746;50.876;4.246;2023-07-02T09:50:44;23.58;;;9.40;;
23155;SDS011;11746;50.876;4.246;2023-07-02T09:53:12;24.92;;;9.82;;
23155;SDS011;11746;50.876;4.246;2023-07-02T09:55:38;23.60;;;10.25;;
23155;SDS011;11746;50.876;4.246;2023-07-02T09:58:07;20.15;;;8.98;;
23155;SDS011;11746;50.876;4.246;2023-07-02T10:00:33;21.65;;;9.75;;
23155;SDS011;11746;50.876;4.246;2023-07-02T10:03:00;22.67;;;10.18;;
23155;SDS011;11746;50.876;4.246;2023-07-02T10:05:29;28.45;;;9.55;;
23155;SDS011;11746;50.876;4.246;2023-07-02T10:07:57;20.35;;;9.00;;
23155;SDS011;11746;50.876;4.246;2023-07-02T10:10:30;20.45;;;8.77;;
23155;SDS011;11746;50.876;4.246;2023-07-02T10:12:57;22.23;;;8.90;;
23155;SDS011;11746;50.876;4.246;2023-07-02T10:15:29;20.67;;;8.77;;
23155;SDS011;11746;50.876;4.246;2023-07-02T10:18:03;20.67;;;8.63;;
23155;SDS011;11746;50.876;4.246;2023-07-02T10:20:33;22.50;;;9.05;;
23155;SDS011;11746;50.876;4.246;2023-07-02T10:23:03;21.77;;;9.57;;
23155;SDS011;11746;50.876;4.246;2023-07-02T10:25:31;24.83;;;8.95;;
23155;SDS011;11746;50.876;4.246;2023-07-02T10:27:59;15.88;;;8.00;;
23155;SDS011;11746;50.876;4.246;2023-07-02T10:30:45;20.55;;;9.32;;
23155;SDS011;11746;50.876;4.246;2023-07-02T10:33:11;25.00;;;8.55;;
23155;SDS011;11746;50.876;4.246;2023-07-02T10:35:43;19.83;;;9.23;;
23155;SDS011;11746;50.876;4.246;2023-07-02T10:38:13;20.20;;;8.65;;
23155;SDS011;11746;50.876;4.246;2023-07-02T10:40:44;20.25;;;8.85;;
23155;SDS011;11746;50.876;4.246;2023-07-02T10:43:10;22.63;;;9.05;;
23155;SDS011;11746;50.876;4.246;2023-07-02T10:45:36;21.50;;;9.25;;
23155;SDS011;11746;50.876;4.246;2023-07-02T10:48:03;19.45;;;8.85;;
23155;SDS011;11746;50.876;4.246;2023-07-02T10:50:30;23.98;;;9.00;;
23155;SDS011;11746;50.876;4.246;2023-07-02T10:52:59;21.17;;;9.35;;
23155;SDS011;11746;50.876;4.246;2023-07-02T10:55:27;16.80;;;8.00;;
23155;SDS011;11746;50.876;4.246;2023-07-02T10:58:06;19.00;;;7.90;;
23155;SDS011;11746;50.876;4.246;2023-07-02T11:00:47;17.38;;;8.10;;
23155;SDS011;11746;50.876;4.246;2023-07-02T11:03:20;21.70;;;8.88;;
23155;SDS011;11746;50.876;4.246;2023-07-02T11:05:50;22.95;;;9.02;;
23155;SDS011;11746;50.876;4.246;2023-07-02T11:08:17;19.00;;;8.55;;
23155;SDS011;11746;50.876;4.246;2023-07-02T11:10:43;18.45;;;8.10;;
23155;SDS011;11746;50.876;4.246;2023-07-02T11:13:10;19.10;;;9.82;;
23155;SDS011;11746;50.876;4.246;2023-07-02T11:15:38;20.55;;;8.52;;
23155;SDS011;11746;50.876;4.246;2023-07-02T11:18:13;17.70;;;8.25;;
23155;SDS011;11746;50.876;4.246;2023-07-02T11:20:40;17.75;;;7.93;;
23155;SDS011;11746;50.876;4.246;2023-07-02T11:23:18;16.05;;;8.02;;
23155;SDS011;11746;50.876;4.246;2023-07-02T11:25:57;17.13;;;8.32;;
23155;SDS011;11746;50.876;4.246;2023-07-02T11:28:24;22.90;;;9.32;;
23155;SDS011;11746;50.876;4.246;2023-07-02T11:30:50;18.88;;;8.00;;
23155;SDS011;11746;50.876;4.246;2023-07-02T11:33:16;18.00;;;8.85;;
23155;SDS011;11746;50.876;4.246;2023-07-02T11:35:42;20.08;;;8.95;;
23155;SDS011;11746;50.876;4.246;2023-07-02T11:38:09;19.25;;;8.85;;
23155;SDS011;11746;50.876;4.246;2023-07-02T11:40:38;19.15;;;8.98;;
23155;SDS011;11746;50.876;4.246;2023-07-02T11:43:04;20.35;;;8.98;;
23155;SDS011;11746;50.876;4.246;2023-07-02T11:45:31;16.45;;;7.95;;
23155;SDS011;11746;50.876;4.246;2023-07-02T11:47:57;18.08;;;8.55;;
23155;SDS011;11746;50.876;4.246;2023-07-02T11:50:23;23.05;;;9.57;;
23155;SDS011;11746;50.876;4.246;2023-07-02T11:52:48;25.75;;;9.60;;
23155;SDS011;11746;50.876;4.246;2023-07-02T11:55:14;18.20;;;9.00;;
23155;SDS011;11746;50.876;4.246;2023-07-02T11:57:40;18.10;;;8.20;;
23155;SDS011;11746;50.876;4.246;2023-07-02T12:00:06;20.33;;;9.00;;
23155;SDS011;11746;50.876;4.246;2023-07-02T12:02:32;18.90;;;8.45;;
23155;SDS011;11746;50.876;4.246;2023-07-02T12:04:58;23.45;;;8.77;;
23155;SDS011;11746;50.876;4.246;2023-07-02T12:07:24;18.00;;;8.63;;
23155;SDS011;11746;50.876;4.246;2023-07-02T12:09:50;22.05;;;8.27;;
23155;SDS011;11746;50.876;4.246;2023-07-02T12:12:16;22.55;;;9.15;;
23155;SDS011;11746;50.876;4.246;2023-07-02T12:14:42;18.75;;;7.80;;
23155;SDS011;11746;50.876;4.246;2023-07-02T12:17:09;17.67;;;7.40;;
23155;SDS011;11746;50.876;4.246;2023-07-02T12:19:38;17.20;;;7.38;;
23155;SDS011;11746;50.876;4.246;2023-07-02T12:22:05;18.20;;;7.95;;
23155;SDS011;11746;50.876;4.246;2023-07-02T12:24:31;18.33;;;7.82;;
23155;SDS011;11746;50.876;4.246;2023-07-02T12:26:57;16.38;;;7.07;;
23155;SDS011;11746;50.876;4.246;2023-07-02T12:29:23;16.67;;;6.68;;
23155;SDS011;11746;50.876;4.246;2023-07-02T12:31:48;15.65;;;6.97;;
23155;SDS011;11746;50.876;4.246;2023-07-02T12:34:14;19.73;;;7.10;;
23155;SDS011;11746;50.876;4.246;2023-07-02T12:36:41;15.20;;;7.00;;
23155;SDS011;11746;50.876;4.246;2023-07-02T12:39:06;14.40;;;6.93;;
23155;SDS011;11746;50.876;4.246;2023-07-02T12:41:33;18.58;;;7.82;;
23155;SDS011;11746;50.876;4.246;2023-07-02T12:43:59;18.80;;;7.15;;
23155;SDS011;11746;50.876;4.246;2023-07-02T12:46:24;18.55;;;7.10;;
23155;SDS011;11746;50.876;4.246;2023-07-02T12:48:50;17.52;;;7.05;;
23155;SDS011;11746;50.876;4.246;2023-07-02T12:51:16;16.25;;;7.00;;
23155;SDS011;11746;50.876;4.246;2023-07-02T12:53:42;13.45;;;6.78;;
23155;SDS011;11746;50.876;4.246;2023-07-02T12:56:08;14.95;;;6.57;;
23155;SDS011;11746;50.876;4.246;2023-07-02T12:58:36;12.30;;;6.47;;
23155;SDS011;11746;50.876;4.246;2023-07-02T13:01:02;15.27;;;6.68;;
23155;SDS011;11746;50.876;4.246;2023-07-02T13:03:29;15.98;;;6.85;;
23155;SDS011;11746;50.876;4.246;2023-07-02T13:05:55;15.18;;;7.15;;
23155;SDS011;11746;50.876;4.246;2023-07-02T13:08:21;16.63;;;6.90;;
23155;SDS011;11746;50.876;4.246;2023-07-02T13:10:47;22.63;;;7.47;;
23155;SDS011;11746;50.876;4.246;2023-07-02T13:13:13;14.93;;;7.03;;
23155;SDS011;11746;50.876;4.246;2023-07-02T13:15:39;14.38;;;7.05;;
23155;SDS011;11746;50.876;4.246;2023-07-02T13:18:05;17.38;;;7.28;;
23155;SDS011;11746;50.876;4.246;2023-07-02T13:20:30;12.13;;;5.95;;
23155;SDS011;11746;50.876;4.246;2023-07-02T13:22:57;15.50;;;6.38;;
23155;SDS011;11746;50.876;4.246;2023-07-02T13:25:23;14.25;;;7.03;;
23155;SDS011;11746;50.876;4.246;2023-07-02T13:27:49;11.95;;;6.07;;
23155;SDS011;11746;50.876;4.246;2023-07-02T13:30:15;15.88;;;6.85;;
23155;SDS011;11746;50.876;4.246;2023-07-02T13:32:41;13.43;;;6.72;;
23155;SDS011;11746;50.876;4.246;2023-07-02T13:35:07;12.70;;;7.03;;
23155;SDS011;11746;50.876;4.246;2023-07-02T13:37:33;14.43;;;6.85;;
23155;SDS011;11746;50.876;4.246;2023-07-02T13:39:59;14.27;;;6.68;;
23155;SDS011;11746;50.876;4.246;2023-07-02T13:42:25;13.02;;;6.47;;
23155;SDS011;11746;50.876;4.246;2023-07-02T13:44:51;15.23;;;6.68;;
23155;SDS011;11746;50.876;4.246;2023-07-02T13:47:17;18.80;;;7.60;;
23155;SDS011;11746;50.876;4.246;2023-07-02T13:49:42;15.32;;;6.55;;
23155;SDS011;11746;50.876;4.246;2023-07-02T13:52:09;16.42;;;6.57;;
23155;SDS011;11746;50.876;4.246;2023-07-02T13:54:34;16.80;;;7.32;;
23155;SDS011;11746;50.876;4.246;2023-07-02T13:57:00;12.45;;;6.47;;
23155;SDS011;11746;50.876;4.246;2023-07-02T13:59:26;13.25;;;6.03;;
23155;SDS011;11746;50.876;4.246;2023-07-02T14:01:52;15.30;;;6.82;;
23155;SDS011;11746;50.876;4.246;2023-07-02T14:04:18;16.70;;;6.68;;
23155;SDS011;11746;50.876;4.246;2023-07-02T14:06:44;12.60;;;6.47;;
23155;SDS011;11746;50.876;4.246;2023-07-02T14:09:10;16.73;;;6.82;;
23155;SDS011;11746;50.876;4.246;2023-07-02T14:11:38;17.42;;;6.65;;
23155;SDS011;11746;50.876;4.246;2023-07-02T14:14:05;17.40;;;6.13;;
23155;SDS011;11746;50.876;4.246;2023-07-02T14:16:31;15.15;;;6.70;;
23155;SDS011;11746;50.876;4.246;2023-07-02T14:18:57;12.70;;;5.90;;
23155;SDS011;11746;50.876;4.246;2023-07-02T14:21:23;13.93;;;6.05;;
23155;SDS011;11746;50.876;4.246;2023-07-02T14:23:49;13.48;;;5.93;;
23155;SDS011;11746;50.876;4.246;2023-07-02T14:26:15;15.15;;;6.30;;
23155;SDS011;11746;50.876;4.246;2023-07-02T14:28:41;12.13;;;6.28;;